Time;durP1;ratioP1;P1;durP2;ratioP2;P2;SDS_P1;SDS_P2;PMS_P1;PMS_P2;Temp;Humidity;BMP_temperature;BMP_pressure;BME280_temperature;BME280_humidity;BME280_pressure;Samples;Min_cycle;Max_cycle;Signal;HPM_P1;HPM_P2
2022/06/16 00:01:07;;;;;;;8.40;3.90;;;;;;;16.22;51.25;100881.47;1789678;77;98693;-64
2022/06/16 00:03:35;;;;;;;6.45;3.20;;;;;;;16.21;51.31;100888.71;1783267;77;26133;-64
2022/06/16 00:06:06;;;;;;;5.78;2.90;;;;;;;16.19;51.36;100891.13;1802135;77;98775;-64
2022/06/16 00:08:32;;;;;;;5.25;3.60;;;;;;;16.17;51.41;100882.23;1793654;77;27371;-64
2022/06/16 00:11:16;;;;;;;10.38;3.58;;;;;;;16.15;51.46;100893.63;1778233;78;26297;-64
2022/06/16 00:13:42;;;;;;;9.88;3.30;;;;;;;16.13;51.56;100895.56;1739998;79;98870;-65
2022/06/16 00:16:11;;;;;;;11.45;3.58;;;;;;;16.11;51.67;100893.44;1793844;77;26408;-65
2022/06/16 00:18:39;;;;;;;13.93;5.50;;;;;;;16.09;51.68;100896.72;1797181;77;98801;-65
2022/06/16 00:21:08;;;;;;;7.15;3.30;;;;;;;16.06;51.76;100890.16;1800469;77;27521;-64
2022/06/16 00:23:36;;;;;;;5.17;2.80;;;;;;;16.03;51.85;100888.51;1787218;77;98842;-65
2022/06/16 00:26:03;;;;;;;9.68;3.80;;;;;;;16.00;51.93;100884.64;1779349;78;25710;-65
2022/06/16 00:28:29;;;;;;;7.35;3.55;;;;;;;15.99;52.03;100880.68;1755572;79;26429;-65
2022/06/16 00:31:04;;;;;;;8.40;3.50;;;;;;;15.96;52.09;100884.44;1755921;79;98861;-65
2022/06/16 00:33:31;;;;;;;13.00;4.40;;;;;;;15.94;52.18;100879.61;1775708;80;27334;-65
2022/06/16 00:35:57;;;;;;;10.80;3.70;;;;;;;15.91;52.28;100876.62;1760745;80;99132;-65
2022/06/16 00:38:24;;;;;;;10.15;3.80;;;;;;;15.89;52.36;100874.97;1771210;78;25838;-65
2022/06/16 00:40:53;;;;;;;8.65;4.05;;;;;;;15.86;52.43;100877.38;1773194;78;26516;-64
2022/06/16 00:43:21;;;;;;;6.05;3.67;;;;;;;15.82;52.50;100873.61;1774516;80;98634;-64
2022/06/16 00:46:04;;;;;;;9.38;3.60;;;;;;;15.78;52.60;100867.52;1769106;80;27569;-64
2022/06/16 00:48:56;;;;;;;4.20;2.98;;;;;;;15.76;52.70;100865.88;1767106;80;98711;-65
2022/06/16 00:51:39;;;;;;;8.38;3.65;;;;;;;15.70;52.80;100868.47;1768721;79;26348;-65
2022/06/16 00:54:15;;;;;;;6.95;3.40;;;;;;;15.65;52.89;100862.96;1770164;80;98866;-65
2022/06/16 00:56:42;;;;;;;9.05;4.00;;;;;;;15.63;53.01;100859.48;1769647;78;26320;-65
2022/06/16 00:59:09;;;;;;;10.40;3.52;;;;;;;15.61;53.10;100863.63;1766873;79;29475;-65
2022/06/16 01:01:40;;;;;;;8.65;3.45;;;;;;;15.59;53.20;100856.13;1776883;80;98757;-65
2022/06/16 01:06:53;;;;;;;7.60;3.55;;;;;;;15.53;53.39;100859.17;1773688;80;98841;-65
2022/06/16 01:09:24;;;;;;;9.40;3.60;;;;;;;15.50;53.51;100858.00;1768922;80;25689;-65
2022/06/16 01:15:41;;;;;;;10.15;3.92;;;;;;;15.45;53.74;100860.98;1771861;80;26637;-64
2022/06/16 01:18:45;;;;;;;12.85;5.05;;;;;;;15.42;53.88;100854.41;1766667;79;99214;-65
2022/06/16 01:21:19;;;;;;;7.70;4.10;;;;;;;15.39;53.95;100849.20;1773508;80;26434;-64
2022/06/16 01:24:01;;;;;;;10.20;4.95;;;;;;;15.38;54.07;100850.64;1769652;80;98966;-64
2022/06/16 01:26:56;;;;;;;7.58;4.22;;;;;;;15.37;54.14;100850.25;1763876;80;27464;-64
2022/06/16 01:29:56;;;;;;;9.08;4.30;;;;;;;15.33;54.24;100845.99;1774859;78;26074;-66
2022/06/16 01:32:30;;;;;;;8.38;4.42;;;;;;;15.31;54.41;100847.44;1774321;79;25861;-65
2022/06/16 01:35:37;;;;;;;16.10;6.17;;;;;;;15.31;54.52;100847.92;1776119;80;28189;-65
2022/06/16 01:38:11;;;;;;;7.42;4.40;;;;;;;15.31;54.65;100846.56;1759197;80;98654;-66
2022/06/16 01:40:43;;;;;;;8.95;4.92;;;;;;;15.28;54.74;100848.97;1772550;80;27535;-65
2022/06/16 01:43:23;;;;;;;11.10;4.50;;;;;;;15.25;54.86;100851.38;1767208;80;98686;-66
2022/06/16 01:46:26;;;;;;;10.30;4.62;;;;;;;15.24;54.94;100852.81;1768343;80;25807;-65
2022/06/16 01:49:03;;;;;;;11.93;4.85;;;;;;;15.22;55.08;100852.91;1767853;79;99427;-65
2022/06/16 01:51:49;;;;;;;9.30;4.45;;;;;;;15.18;55.17;100855.39;1771841;80;25791;-64
2022/06/16 01:54:30;;;;;;;9.73;4.95;;;;;;;15.15;55.30;100851.52;1766613;80;99215;-65
2022/06/16 01:57:08;;;;;;;11.50;4.28;;;;;;;15.14;55.41;100855.19;1768758;79;25707;-65
2022/06/16 02:00:02;;;;;;;11.45;4.42;;;;;;;15.14;55.54;100860.58;1775375;80;25844;-67
2022/06/16 02:02:32;;;;;;;8.40;4.50;;;;;;;15.10;55.55;100852.27;1737153;79;100451;-64
2022/06/16 02:05:26;;;;;;;7.12;4.22;;;;;;;15.03;55.66;100852.24;1771434;80;25771;-64
2022/06/16 02:08:02;;;;;;;9.50;4.60;;;;;;;15.01;55.76;100851.95;1765271;80;98962;-67
2022/06/16 02:10:35;;;;;;;11.22;5.10;;;;;;;14.96;55.90;100852.21;1770441;80;25481;-65
2022/06/16 02:13:04;;;;;;;8.43;4.70;;;;;;;14.96;56.08;100846.81;1772526;80;98936;-64
2022/06/16 02:15:38;;;;;;;;;;;;;;;14.94;56.07;100843.33;1775612;78;26163;-64
2022/06/16 02:18:08;;;;;;;10.90;4.72;;;;;;;14.91;56.35;100850.26;1774364;80;25662;-65
2022/06/16 02:20:52;;;;;;;5.67;4.17;;;;;;;14.90;56.33;100849.87;1773644;78;98821;-64
2022/06/16 02:23:20;;;;;;;8.08;4.50;;;;;;;14.87;56.35;100851.39;1764173;80;25806;-64
2022/06/16 02:25:50;;;;;;;9.70;4.00;;;;;;;14.83;56.47;100843.95;1766249;80;98696;-64
2022/06/16 02:28:16;;;;;;;9.40;4.37;;;;;;;14.84;56.53;100847.53;1745221;80;29184;-66
2022/06/16 02:30:57;;;;;;;25.72;5.40;;;;;;;14.80;56.62;100844.13;1766102;80;98905;-65
2022/06/16 02:33:44;;;;;;;8.15;4.70;;;;;;;14.81;56.72;100844.52;1784207;77;27496;-66
2022/06/16 02:36:38;;;;;;;8.68;4.15;;;;;;;14.80;56.84;100841.91;1784476;77;25821;-65
2022/06/16 02:39:25;;;;;;;7.08;4.03;;;;;;;14.78;56.85;100842.48;1780215;78;26515;-65
2022/06/16 02:42:25;;;;;;;11.95;4.97;;;;;;;14.76;56.98;100839.88;1793062;77;28121;-64
2022/06/16 02:45:20;;;;;;;8.33;4.70;;;;;;;14.75;57.02;100834.08;1769729;78;98911;-65
2022/06/16 02:48:03;;;;;;;8.33;4.30;;;;;;;14.75;57.12;100833.22;1756515;79;27430;-65
2022/06/16 02:50:57;;;;;;;7.25;4.45;;;;;;;14.73;57.20;100835.12;1754550;78;99305;-65
2022/06/16 02:54:11;;;;;;;8.30;4.55;;;;;;;14.74;57.29;100835.52;1773733;78;26181;-64
2022/06/16 02:57:05;;;;;;;11.12;5.12;;;;;;;14.73;57.41;100831.08;1679548;83;98726;-63
2022/06/16 03:00:00;;;;;;;9.38;4.30;;;;;;;14.70;57.42;100823.16;1677223;83;26553;-64
2022/06/16 03:02:27;;;;;;;8.18;4.30;;;;;;;14.67;57.53;100824.21;1706638;82;98715;-64
2022/06/16 03:04:57;;;;;;;11.18;4.78;;;;;;;14.68;57.63;100822.38;1712091;82;26269;-64
2022/06/16 03:07:28;;;;;;;11.45;4.72;;;;;;;14.69;57.59;100825.47;1709039;82;98994;-64
2022/06/16 03:09:54;;;;;;;12.95;5.28;;;;;;;14.67;57.72;100822.86;1706047;82;26038;-64
2022/06/16 03:12:22;;;;;;;9.20;4.65;;;;;;;14.68;57.81;100823.25;1710152;82;25751;-64
2022/06/16 03:14:50;;;;;;;13.10;4.47;;;;;;;14.70;57.82;100828.08;1739228;80;98747;-64
2022/06/16 03:17:18;;;;;;;6.75;4.17;;;;;;;14.68;57.92;100825.08;1740826;80;25896;-65
2022/06/16 03:19:45;;;;;;;7.62;4.08;;;;;;;14.72;58.04;100822.59;1748115;80;98013;-65
2022/06/16 03:22:12;;;;;;;8.33;4.17;;;;;;;14.76;58.03;100816.06;1766838;81;26798;-64
2022/06/16 03:24:40;;;;;;;9.63;3.85;;;;;;;14.77;58.09;100811.06;1765658;80;98859;-65
2022/06/16 03:27:07;;;;;;;8.13;3.87;;;;;;;14.81;58.23;100807.22;1766806;81;27453;-65
2022/06/16 03:29:34;;;;;;;7.75;4.22;;;;;;;14.87;58.24;100813.13;1766877;81;25232;-64
2022/06/16 03:32:04;;;;;;;17.23;4.92;;;;;;;14.91;58.26;100807.95;1765674;80;98657;-65
2022/06/16 03:34:30;;;;;;;10.75;4.65;;;;;;;14.94;58.27;100806.89;1766514;81;26038;-64
2022/06/16 03:36:56;;;;;;;8.98;4.28;;;;;;;14.94;58.31;100805.55;1765641;80;98958;-65
2022/06/16 03:39:23;;;;;;;12.28;4.42;;;;;;;14.95;58.33;100808.63;1767000;81;27823;-65
2022/06/16 03:41:50;;;;;;;9.48;4.12;;;;;;;14.93;58.39;100799.76;1766174;81;26149;-64
2022/06/16 03:44:18;;;;;;;8.08;4.45;;;;;;;14.93;58.49;100802.45;1765324;80;98612;-65
2022/06/16 03:46:43;;;;;;;8.15;4.40;;;;;;;14.98;58.61;100799.48;1766500;81;28175;-65
2022/06/16 03:49:10;;;;;;;7.72;4.22;;;;;;;15.05;58.64;100803.08;1765313;80;98881;-64
2022/06/16 03:51:37;;;;;;;13.03;4.45;;;;;;;15.08;58.63;100782.66;1767077;81;27940;-65
2022/06/16 03:54:04;;;;;;;9.75;4.37;;;;;;;15.12;58.69;100782.86;1766490;81;25686;-64
2022/06/16 03:56:31;;;;;;;10.20;4.00;;;;;;;15.17;58.69;100786.63;1698753;82;98898;-65
2022/06/16 03:58:58;;;;;;;10.13;3.95;;;;;;;15.22;58.71;100784.05;1721152;83;26226;-65
2022/06/16 04:01:27;;;;;;;6.33;3.83;;;;;;;15.25;58.65;100785.21;1709598;83;98841;-65
2022/06/16 04:04:01;;;;;;;8.50;3.87;;;;;;;15.30;58.64;100784.06;1712575;83;27547;-65
2022/06/16 04:06:32;;;;;;;6.45;4.10;;;;;;;15.30;58.66;100775.48;1724237;83;25631;-65
2022/06/16 04:08:59;;;;;;;8.18;4.78;;;;;;;15.32;58.67;100778.95;1723126;82;98576;-64
2022/06/16 04:11:26;;;;;;;8.45;4.10;;;;;;;15.40;58.69;100774.44;1724683;83;26182;-64
2022/06/16 04:14:00;;;;;;;7.47;3.98;;;;;;;15.45;58.67;100775.02;1723310;82;98730;-64
2022/06/16 04:16:35;;;;;;;8.70;4.40;;;;;;;15.53;58.67;100769.53;1724414;83;27627;-65
2022/06/16 04:19:01;;;;;;;6.22;3.55;;;;;;;15.61;58.64;100767.71;1723009;83;99074;-65
2022/06/16 04:24:19;;;;;;;7.67;3.52;;;;;;;15.74;58.54;100769.16;1665535;84;28239;-64
2022/06/16 04:26:45;;;;;;;6.95;3.72;;;;;;;15.79;58.51;100772.45;1696233;82;98867;-66
2022/06/16 04:29:14;;;;;;;8.83;3.75;;;;;;;15.85;58.46;100774.28;1700381;82;27480;-64
2022/06/16 04:31:40;;;;;;;7.40;3.60;;;;;;;15.92;58.43;100770.70;1699278;82;98748;-64
2022/06/16 04:34:09;;;;;;;6.60;3.75;;;;;;;16.00;58.37;100768.87;1742800;80;25773;-64
2022/06/16 04:36:36;;;;;;;8.13;3.60;;;;;;;16.06;58.25;100773.88;1738269;80;26075;-64
2022/06/16 04:39:03;;;;;;;7.33;3.45;;;;;;;16.10;58.17;100774.07;1740054;80;98365;-65
2022/06/16 04:41:29;;;;;;;10.53;4.28;;;;;;;16.15;58.14;100773.30;1739629;80;27382;-64
2022/06/16 04:43:57;;;;;;;9.88;3.47;;;;;;;16.21;58.04;100770.19;1702290;82;98875;-64
2022/06/16 04:46:26;;;;;;;7.33;4.15;;;;;;;16.26;58.01;100768.05;1700743;82;25904;-64
2022/06/16 04:48:54;;;;;;;8.08;3.33;;;;;;;16.30;57.86;100760.61;1695578;82;98955;-64
2022/06/16 04:51:20;;;;;;;9.25;4.28;;;;;;;16.30;57.78;100755.20;1706413;82;25790;-63
2022/06/16 04:53:48;;;;;;;5.20;2.90;;;;;;;16.33;57.72;100755.87;1702701;81;27429;-63
2022/06/16 04:56:14;;;;;;;7.80;3.30;;;;;;;16.34;57.70;100750.84;1737558;80;98887;-66
2022/06/16 04:58:41;;;;;;;5.95;3.27;;;;;;;16.40;57.67;100754.98;1737886;80;25974;-63
2022/06/16 05:01:08;;;;;;;9.05;3.42;;;;;;;16.44;57.53;100755.17;1739426;80;98964;-64
2022/06/16 05:03:34;;;;;;;6.85;3.15;;;;;;;16.46;57.52;100756.80;1740961;80;25902;-63
2022/06/16 05:06:00;;;;;;;8.83;3.52;;;;;;;16.51;57.47;100750.60;1742131;80;27474;-64
2022/06/16 05:08:28;;;;;;;8.58;3.25;;;;;;;16.56;57.38;100751.16;1738892;80;98701;-64
2022/06/16 05:10:55;;;;;;;6.67;3.50;;;;;;;16.59;57.30;100744.68;1694445;83;26637;-64
2022/06/16 05:13:23;;;;;;;7.53;3.60;;;;;;;16.63;57.27;100747.56;1692851;83;98965;-63
2022/06/16 05:15:56;;;;;;;6.60;3.40;;;;;;;16.70;57.14;100745.34;1703865;82;26902;-64
2022/06/16 05:18:22;;;;;;;7.22;3.87;;;;;;;16.76;57.19;100753.92;1702037;82;27451;-63
2022/06/16 05:20:48;;;;;;;4.72;3.20;;;;;;;16.84;57.09;100746.16;1694937;82;98940;-63
2022/06/16 05:23:14;;;;;;;7.53;3.30;;;;;;;16.94;57.07;100751.81;1702262;82;25875;-63
2022/06/16 05:25:41;;;;;;;8.73;3.92;;;;;;;17.05;56.96;100753.30;1705270;82;99258;-64
2022/06/16 05:28:11;;;;;;;8.50;3.40;;;;;;;17.15;56.90;100744.92;1764985;79;26258;-64
2022/06/16 05:30:38;;;;;;;7.92;3.47;;;;;;;17.29;56.85;100747.16;1762295;79;27482;-66
2022/06/16 05:33:06;;;;;;;8.33;3.47;;;;;;;17.41;56.75;100736.83;1767543;79;98504;-64
2022/06/16 05:35:33;;;;;;;9.85;3.95;;;;;;;17.51;56.69;100739.27;1772242;79;25793;-63
2022/06/16 05:38:01;;;;;;;5.87;3.33;;;;;;;17.60;56.58;100741.33;1754433;79;98746;-64
2022/06/16 05:40:27;;;;;;;22.62;4.05;;;;;;;17.66;56.44;100749.55;1763577;79;25745;-64
2022/06/16 05:42:53;;;;;;;12.88;3.77;;;;;;;17.69;56.36;100742.06;1762546;79;98995;-63
2022/06/16 05:45:19;;;;;;;6.72;4.05;;;;;;;17.75;56.26;100747.05;1764551;79;26482;-64
2022/06/16 05:47:49;;;;;;;7.50;4.50;;;;;;;17.78;56.16;100746.83;1765169;79;25831;-65
2022/06/16 05:50:18;;;;;;;8.50;3.70;;;;;;;17.73;56.18;100724.60;1758857;79;98585;-65
2022/06/16 05:52:48;;;;;;;8.68;4.05;;;;;;;17.73;56.18;100724.60;1759234;79;25699;-64
2022/06/16 05:55:18;;;;;;;8.20;3.47;;;;;;;17.93;55.94;100742.14;1763801;79;99210;-64
2022/06/16 05:57:45;;;;;;;11.03;3.90;;;;;;;17.95;55.81;100732.55;1764651;79;25730;-64
2022/06/16 06:00:15;;;;;;;7.37;4.17;;;;;;;17.94;55.71;100736.23;1762222;79;25776;-64
2022/06/16 06:02:43;;;;;;;7.72;3.72;;;;;;;18.00;55.75;100731.72;1762907;79;98805;-66
2022/06/16 06:05:12;;;;;;;8.15;4.05;;;;;;;18.06;55.67;100733.49;1759744;79;25735;-66
2022/06/16 06:18:44;;;;;;;8.90;3.85;;;;;;;18.40;55.34;100741.83;1761282;79;98942;-63
2022/06/16 06:21:09;;;;;;;10.35;4.53;;;;;;;18.47;55.25;100741.26;1762855;79;29633;-65
2022/06/16 06:23:36;;;;;;;7.05;4.22;;;;;;;18.48;55.13;100740.27;1755216;79;25748;-63
2022/06/16 06:26:04;;;;;;;9.35;4.55;;;;;;;18.56;55.14;100744.27;1747958;80;99302;-64
2022/06/16 06:28:31;;;;;;;8.58;4.55;;;;;;;18.63;55.07;100751.00;1757296;80;25747;-63
2022/06/16 06:31:00;;;;;;;10.90;5.05;;;;;;;18.67;54.96;100746.58;1748167;80;98750;-64
2022/06/16 06:33:26;;;;;;;7.55;4.40;;;;;;;18.67;54.91;100745.23;1747546;80;28199;-63
2022/06/16 06:35:55;;;;;;;10.95;4.72;;;;;;;18.68;54.86;100737.95;1751799;80;26476;-65
2022/06/16 06:38:23;;;;;;;10.00;5.65;;;;;;;18.70;54.85;100733.27;1754446;80;98892;-63
2022/06/16 06:40:49;;;;;;;9.45;4.20;;;;;;;18.74;54.74;100733.41;1752188;80;26701;-65
2022/06/16 06:43:16;;;;;;;8.83;4.28;;;;;;;18.74;54.69;100733.41;1756747;80;98948;-64
2022/06/16 06:45:42;;;;;;;15.65;7.35;;;;;;;18.71;54.63;100736.36;1752365;80;27483;-63
2022/06/16 06:48:10;;;;;;;23.12;9.60;;;;;;;18.72;54.69;100739.45;1748567;80;26614;-63
2022/06/16 06:50:39;;;;;;;12.18;4.60;;;;;;;18.77;54.75;100738.61;1708723;81;98902;-63
2022/06/16 06:53:07;;;;;;;7.10;3.98;;;;;;;18.85;54.74;100735.31;1751819;80;26111;-65
2022/06/16 06:55:37;;;;;;;7.45;4.50;;;;;;;18.87;54.62;100733.34;1748350;80;98639;-66
2022/06/16 06:58:06;;;;;;;9.80;3.90;;;;;;;18.87;54.60;100728.77;1758797;80;27547;-64
2022/06/16 07:00:34;;;;;;;11.68;4.15;;;;;;;18.88;54.58;100729.15;1751565;80;25868;-63
2022/06/16 07:03:00;;;;;;;11.38;4.17;;;;;;;18.90;54.55;100736.69;1748634;80;97724;-64
2022/06/16 07:05:26;;;;;;;8.08;4.25;;;;;;;18.93;54.54;100735.09;1749182;80;26181;-64
2022/06/16 07:07:58;;;;;;;9.75;4.22;;;;;;;18.97;54.50;100742.02;1750985;80;98687;-65
2022/06/16 07:10:24;;;;;;;11.48;4.30;;;;;;;18.98;54.46;100742.89;1747059;80;27454;-65
2022/06/16 07:12:51;;;;;;;9.05;4.70;;;;;;;19.02;54.48;100743.03;1749713;80;99041;-64
2022/06/16 07:15:18;;;;;;;7.03;4.22;;;;;;;19.03;54.43;100746.98;1755860;80;26307;-64
2022/06/16 07:17:45;;;;;;;11.03;4.70;;;;;;;19.06;54.39;100735.88;1753240;80;25892;-64
2022/06/16 07:20:15;;;;;;;10.10;5.12;;;;;;;19.10;54.37;100733.30;1749586;80;98855;-63
2022/06/16 07:22:49;;;;;;;15.00;4.40;;;;;;;19.13;54.34;100732.20;1756486;80;28799;-64
2022/06/16 07:25:18;;;;;;;11.78;4.90;;;;;;;19.19;54.33;100734.94;1762650;79;98994;-63
2022/06/16 07:27:45;;;;;;;18.55;4.53;;;;;;;19.28;54.30;100739.16;1764253;78;25545;-63
2022/06/16 07:30:16;;;;;;;10.28;4.17;;;;;;;19.36;54.15;100744.00;1762677;79;26279;-64
2022/06/16 07:32:46;;;;;;;13.70;4.92;;;;;;;19.39;54.01;100751.42;1730323;81;99023;-63
2022/06/16 07:35:17;;;;;;;11.05;4.15;;;;;;;19.40;53.97;100750.43;1751354;80;27409;-63
2022/06/16 07:37:43;;;;;;;11.18;4.10;;;;;;;19.43;53.87;100740.67;1729392;81;99353;-64
2022/06/16 07:40:13;;;;;;;11.20;4.17;;;;;;;19.50;53.81;100741.06;1726302;81;25866;-64
2022/06/16 07:42:41;;;;;;;12.40;3.77;;;;;;;19.58;53.68;100745.43;1730432;81;26221;-65
2022/06/16 07:45:10;;;;;;;8.68;4.00;;;;;;;19.63;53.52;100744.57;1732463;81;98678;-64
2022/06/16 07:47:38;;;;;;;7.85;4.30;;;;;;;19.69;53.47;100746.80;1723347;81;28187;-64
2022/06/16 07:50:12;;;;;;;9.90;3.67;;;;;;;19.77;53.38;100741.62;1724982;81;98674;-63
2022/06/16 07:52:41;;;;;;;9.85;3.80;;;;;;;19.86;53.23;100741.38;1728095;81;26520;-64
2022/06/16 07:55:09;;;;;;;16.00;4.87;;;;;;;19.94;53.17;100739.39;1749780;80;98844;-64
2022/06/16 07:57:46;;;;;;;8.58;4.17;;;;;;;20.05;53.14;100734.81;1720436;81;25763;-63
2022/06/16 08:00:22;;;;;;;11.05;3.83;;;;;;;20.19;53.02;100726.88;1723013;81;28367;-63
2022/06/16 08:02:51;;;;;;;9.33;3.98;;;;;;;20.32;52.82;100731.69;1727295;81;98818;-62
2022/06/16 08:05:19;;;;;;;10.95;4.05;;;;;;;20.43;52.69;100735.41;1728621;81;25751;-63
2022/06/16 08:07:46;;;;;;;12.90;4.28;;;;;;;20.46;52.51;100730.57;1723771;81;99108;-62
2022/06/16 08:10:18;;;;;;;12.35;5.00;;;;;;;20.54;52.48;100734.02;1725694;81;25802;-63
2022/06/16 08:12:45;;;;;;;9.33;3.80;;;;;;;20.74;52.26;100731.84;1726819;81;27389;-63
2022/06/16 08:15:12;;;;;;;8.73;3.72;;;;;;;20.74;52.26;100731.84;1724993;81;98583;-61
2022/06/16 08:17:41;;;;;;;10.32;4.03;;;;;;;20.81;52.07;100742.56;1734767;81;25748;-63
2022/06/16 08:20:12;;;;;;;9.48;4.05;;;;;;;21.02;51.73;100727.61;1726173;81;98962;-60
2022/06/16 08:22:39;;;;;;;6.85;3.50;;;;;;;21.02;51.73;100727.61;1727340;81;26138;-61
2022/06/16 08:25:12;;;;;;;9.65;4.05;;;;;;;21.20;51.86;100727.89;1726675;81;98865;-61
2022/06/16 08:27:41;;;;;;;11.10;3.80;;;;;;;21.39;51.77;100735.73;1700536;81;25934;-63
2022/06/16 08:30:12;;;;;;;9.88;3.75;;;;;;;21.51;51.35;100735.16;1751388;80;25694;-62
2022/06/16 08:32:38;;;;;;;;;;;;;;;21.62;51.38;100737.81;1754328;80;98711;-60
2022/06/16 08:35:07;;;;;;;8.65;2.83;;;;;;;21.77;51.29;100729.27;1732764;81;26544;-63
2022/06/16 08:37:35;;;;;;;6.10;3.27;;;;;;;21.89;51.14;100739.09;1724644;81;98809;-63
2022/06/16 08:40:07;;;;;;;7.67;2.80;;;;;;;22.00;51.00;100743.09;1755542;80;25781;-63
2022/06/16 08:42:53;;;;;;;11.25;3.80;;;;;;;22.10;50.81;100738.57;1708663;82;25761;-63
2022/06/16 08:45:36;;;;;;;8.75;3.52;;;;;;;22.16;50.69;100746.71;1755786;80;98773;-62
2022/06/16 08:48:22;;;;;;;6.80;3.10;;;;;;;22.26;50.54;100739.41;1725965;81;26405;-63
2022/06/16 08:51:06;;;;;;;11.80;2.98;;;;;;;22.39;50.45;100735.06;1717372;81;98823;-63
2022/06/16 08:53:40;;;;;;;8.00;3.05;;;;;;;22.57;50.28;100737.47;1755543;79;25964;-63
2022/06/16 08:56:30;;;;;;;7.22;2.90;;;;;;;22.71;50.11;100732.10;1753792;80;98695;-65
2022/06/16 08:59:25;;;;;;;5.87;2.58;;;;;;;22.76;49.67;100733.91;1754090;80;26026;-63
2022/06/16 09:02:05;;;;;;;6.72;3.55;;;;;;;22.75;49.60;100730.81;1748616;80;98737;-63
2022/06/16 09:04:39;;;;;;;8.03;3.50;;;;;;;22.81;49.50;100731.14;1753241;80;28192;-63
2022/06/16 09:07:10;;;;;;;8.95;2.95;;;;;;;22.86;49.38;100732.94;1750359;80;98796;-64
2022/06/16 09:13:14;;;;;;;6.10;2.90;;;;;;;23.03;49.17;100731.36;1753199;80;26079;-64
2022/06/16 09:16:03;;;;;;;12.00;2.60;;;;;;;23.24;49.04;100728.46;1753971;80;26159;-63
2022/06/16 09:19:24;;;;;;;4.25;2.60;;;;;;;23.30;48.85;100723.77;1751648;79;27441;-63
2022/06/16 09:22:08;;;;;;;5.08;2.33;;;;;;;23.33;48.62;100722.11;1748677;79;98666;-63
2022/06/16 09:24:50;;;;;;;4.28;2.87;;;;;;;23.47;48.32;100721.63;1751679;80;26088;-63
2022/06/16 09:27:28;;;;;;;5.12;2.33;;;;;;;23.45;48.21;100719.53;1757114;79;99070;-65
2022/06/16 09:30:03;;;;;;;4.37;2.62;;;;;;;23.48;48.19;100721.12;1759394;79;26278;-63
2022/06/16 09:32:46;;;;;;;6.70;2.50;;;;;;;23.49;48.10;100716.00;1762319;79;98741;-63
2022/06/16 09:35:38;;;;;;;4.65;2.70;;;;;;;23.54;47.86;100721.92;1756847;79;26147;-63
2022/06/16 09:38:44;;;;;;;6.42;2.30;;;;;;;23.59;47.77;100725.08;1736005;79;99001;-65
2022/06/16 09:44:13;;;;;;;6.10;2.00;;;;;;;23.89;47.40;100711.66;1763330;78;98001;-63
2022/06/16 09:46:47;;;;;;;4.50;2.17;;;;;;;24.09;47.13;100702.34;1764929;79;29711;-63
2022/06/16 09:49:35;;;;;;;7.05;3.05;;;;;;;24.18;46.82;100699.19;1765285;79;25830;-65
2022/06/16 09:52:18;;;;;;;9.33;2.27;;;;;;;24.31;46.73;100695.61;1753604;79;98771;-64
2022/06/16 09:54:55;;;;;;;4.15;2.12;;;;;;;24.42;46.42;100700.02;1763438;79;26220;-63
2022/06/16 09:57:57;;;;;;;5.80;1.72;;;;;;;24.42;46.26;100697.27;1761151;79;98951;-65
2022/06/16 10:00:33;;;;;;;7.67;2.83;;;;;;;24.35;45.40;100687.44;1761339;79;29526;-65
2022/06/16 10:03:19;;;;;;;4.95;2.35;;;;;;;24.36;45.51;100691.91;1759518;79;98790;-64
2022/06/16 10:06:15;;;;;;;18.77;3.12;;;;;;;24.51;45.49;100689.50;1762248;79;25824;-63
2022/06/16 10:09:18;;;;;;;4.72;1.70;;;;;;;24.67;45.46;100688.30;1755541;79;98864;-63
2022/06/16 10:12:14;;;;;;;6.35;2.10;;;;;;;24.78;45.20;100700.39;1704242;81;25767;-63
2022/06/16 10:15:04;;;;;;;5.22;2.30;;;;;;;24.84;44.92;100696.16;1704541;82;98802;-63
2022/06/16 10:17:30;;;;;;;4.17;2.40;;;;;;;24.89;44.52;100697.41;1697829;82;26735;-63
2022/06/16 10:19:58;;;;;;;8.58;1.70;;;;;;;24.96;44.31;100698.16;1754063;80;98995;-63
2022/06/16 10:22:26;;;;;;;5.72;1.95;;;;;;;25.08;44.20;100699.67;1723155;81;26988;-63
2022/06/16 10:25:17;;;;;;;3.58;2.25;;;;;;;25.17;44.00;100700.09;1691938;81;26385;-63
2022/06/16 10:27:49;;;;;;;7.08;2.85;;;;;;;25.19;42.27;100696.67;1749067;80;98693;-63
2022/06/16 10:30:32;;;;;;;5.12;2.15;;;;;;;25.20;42.28;100702.52;1731356;81;26211;-63
2022/06/16 10:33:33;;;;;;;8.38;3.62;;;;;;;25.31;41.83;100710.48;1734116;81;98896;-64
2022/06/16 10:36:19;;;;;;;4.40;1.90;;;;;;;25.41;40.79;100703.53;1734135;81;26571;-64
2022/06/16 10:39:18;;;;;;;6.42;2.40;;;;;;;25.43;41.24;100702.34;1731985;81;98839;-63
2022/06/16 10:42:18;;;;;;;11.48;2.15;;;;;;;25.60;41.16;100707.94;1697097;82;27349;-63
2022/06/16 10:45:09;;;;;;;11.10;2.83;;;;;;;25.72;40.84;100712.17;1724578;80;98858;-64
2022/06/16 10:48:00;;;;;;;8.23;1.98;;;;;;;25.82;40.73;100712.91;1725414;80;25970;-64
2022/06/16 10:50:39;;;;;;;5.62;2.40;;;;;;;26.09;41.02;100707.18;1755849;80;98800;-65
2022/06/16 10:53:24;;;;;;;5.65;1.90;;;;;;;26.38;40.41;100717.80;1753812;80;26463;-64
2022/06/16 10:55:58;;;;;;;3.12;2.20;;;;;;;26.42;40.34;100724.68;1731583;81;98787;-65
2022/06/16 10:58:30;;;;;;;4.05;2.22;;;;;;;26.44;39.84;100717.12;1752958;80;26203;-62
2022/06/16 11:01:08;;;;;;;5.55;2.60;;;;;;;26.35;39.95;100717.27;1740228;81;25791;-63
2022/06/16 11:03:42;;;;;;;5.37;2.22;;;;;;;26.39;40.01;100714.54;1716482;80;98838;-63
2022/06/16 11:06:09;;;;;;;5.35;2.22;;;;;;;26.34;40.22;100710.05;1735555;81;26066;-63
2022/06/16 11:08:42;;;;;;;6.53;2.50;;;;;;;26.41;40.13;100710.59;1733072;81;98885;-64
2022/06/16 11:11:09;;;;;;;6.12;1.90;;;;;;;26.53;40.26;100701.52;1748168;80;25734;-63
2022/06/16 11:13:41;;;;;;;4.28;1.82;;;;;;;26.73;40.13;100708.44;1729816;81;26504;-65
2022/06/16 11:16:12;;;;;;;5.70;2.45;;;;;;;26.78;39.67;100714.80;1722469;81;98729;-63
2022/06/16 11:18:39;;;;;;;4.33;1.77;;;;;;;26.87;39.34;100707.42;1706063;82;25758;-63
2022/06/16 11:21:17;;;;;;;12.43;2.22;;;;;;;26.95;38.93;100702.79;1732903;81;98834;-63
2022/06/16 11:23:54;;;;;;;2.25;1.45;;;;;;;27.12;38.53;100710.05;1755341;79;26449;-63
2022/06/16 11:26:37;;;;;;;5.00;2.17;;;;;;;27.10;36.99;100704.38;1723747;81;98869;-63
2022/06/16 11:29:15;;;;;;;3.25;1.87;;;;;;;27.02;36.80;100707.13;1705185;82;26641;-65
2022/06/16 11:31:52;;;;;;;4.72;2.40;;;;;;;27.03;36.63;100704.20;1751790;80;25922;-65
2022/06/16 11:34:32;;;;;;;5.03;1.55;;;;;;;27.03;36.29;100707.47;1726798;81;98428;-64
2022/06/16 11:37:11;;;;;;;3.87;1.98;;;;;;;26.99;35.87;100704.72;1734324;81;25884;-63
2022/06/16 11:40:04;;;;;;;5.78;2.05;;;;;;;27.02;35.84;100707.98;1750859;80;98575;-64
2022/06/16 11:42:58;;;;;;;7.60;1.95;;;;;;;26.92;36.00;100700.38;1736804;81;26737;-65
2022/06/16 11:45:47;;;;;;;3.67;1.80;;;;;;;26.87;36.21;100706.05;1721701;81;98611;-64
2022/06/16 11:48:41;;;;;;;10.65;2.00;;;;;;;26.99;36.32;100698.70;1726730;81;27499;-63
2022/06/16 11:51:18;;;;;;;6.85;1.90;;;;;;;27.26;36.03;100689.75;1720919;81;98879;-66
2022/06/16 11:54:18;;;;;;;7.87;2.67;;;;;;;27.42;35.83;100691.97;1755975;80;26052;-64
2022/06/16 11:57:11;;;;;;;4.90;2.10;;;;;;;27.48;35.51;100692.64;1726934;81;98935;-64
2022/06/16 12:00:30;;;;;;;4.12;1.95;;;;;;;27.48;35.67;100691.27;1733305;81;25797;-63
2022/06/16 12:03:08;;;;;;;3.72;1.95;;;;;;;27.47;35.27;100689.55;1732452;81;98711;-66
2022/06/16 12:05:48;;;;;;;10.38;1.70;;;;;;;27.43;35.42;100688.18;1752321;80;25923;-63
2022/06/16 12:08:21;;;;;;;7.70;2.20;;;;;;;27.45;35.41;100690.76;1690021;81;99126;-63
2022/06/16 12:10:56;;;;;;;2.58;1.72;;;;;;;27.14;34.82;100691.48;1702451;81;26137;-64
2022/06/16 12:13:36;;;;;;;9.58;2.02;;;;;;;27.06;34.75;100702.48;1754445;79;25267;-63
2022/06/16 12:16:15;;;;;;;4.25;1.95;;;;;;;27.01;34.65;100693.02;1758967;80;98572;-63
2022/06/16 12:19:09;;;;;;;6.80;2.37;;;;;;;27.00;34.43;100695.43;1753242;80;26529;-64
2022/06/16 12:21:54;;;;;;;5.97;2.50;;;;;;;26.93;34.21;100699.34;1738133;81;98792;-58
2022/06/16 12:24:31;;;;;;;17.32;2.42;;;;;;;26.79;34.30;100699.51;1751507;80;26077;-58
2022/06/16 12:27:05;;;;;;;5.53;2.10;;;;;;;26.61;34.54;100704.28;1723204;81;98945;-59